Tasman Castle — 9HA3163 — position and weather

sailwx.info

Track history (hours):
 
Tides and Currents Weather Stations Pressure Air Temp Water Temp Dewpoint Dewpoint Depression Visibility Wind Speed Wind Dir Waves Ship Positions

Tasman Castle

Last reported at 2018-Jan-05 21:42 UTC. Time now 2018-Jun-24 20:42 UTC.
Position N 34°37' E 130°13'.
Warning: this ship's position is months out of date.

Length 190 m; draft 9.3 m.

Type: Cargo ship. MMSI: 229237000.

Date/timePositionNaut miles runAvg speedWind from/ knotsBaromVisibWave heightAir tempDewpointWater temp
2018-Jan-05 21:42N 34°37' E 130°13'310.4
2018-Jan-05 21:24N 34°35' E 130°16'410.2
2018-Jan-05 21:01N 34°33' E 130°20'510.0
2018-Jan-05 20:30N 34°28' E 130°22'510.4
2018-Jan-05 20:01N 34°24' E 130°26'510.6
2018-Jan-05 19:31N 34°20' E 130°31'510.4
2018-Jan-05 19:00N 34°16' E 130°34'510.6
2018-Jan-05 18:30N 34°11' E 130°37'510.6
2018-Jan-05 18:00N 34°07' E 130°41'510.5
2018-Jan-05 17:30N 34°04' E 130°46'510.2
2018-Jan-05 17:00N 34°01' E 130°51'4 7.7
2018-Jan-05 16:30N 33°58' E 130°52'4 7.5
2018-Jan-05 16:00N 33°55' E 130°56'510.6
2018-Jan-05 15:30N 33°59' E 131°01'4 8.5
2018-Jan-05 15:00N 33°56' E 131°05'4 8.4
2018-Jan-05 14:30N 33°54' E 131°09'5 9.1
2018-Jan-05 14:00N 33°52' E 131°14'5 9.4
2018-Jan-05 13:30N 33°51' E 131°19'5 9.6
2018-Jan-05 13:00N 33°50' E 131°25'5 9.4
2018-Jan-05 12:30N 33°48' E 131°30'4 8.8
2018-Jan-05 12:00N 33°48' E 131°36'3 5.8
2018-Jan-05 11:30N 33°47' E 131°39'4 8.5
2018-Jan-05 11:00N 33°45' E 131°43'5 9.7
2018-Jan-05 10:30N 33°41' E 131°47'5 9.7
2018-Jan-05 10:00N 33°36' E 131°49'510.3
2018-Jan-05 09:30N 33°31' E 131°49'5 9.9
2018-Jan-05 09:00N 33°26' E 131°50'5 9.7
2018-Jan-05 08:30N 33°22' E 131°51'5 9.8
2018-Jan-05 08:00N 33°17' E 131°51'2 2.7
2018-Jan-05 07:27N 33°15' E 131°52'0 0.0
2018-Jan-05 06:57N 33°15' E 131°52'0 0.0
2018-Jan-05 06:27N 33°15' E 131°52'0 0.0
2018-Jan-05 05:57N 33°15' E 131°52'0 0.0
2018-Jan-05 05:13N 33°15' E 131°52'0 0.0
2018-Jan-05 04:55N 33°15' E 131°52'0 0.0
2018-Jan-05 04:25N 33°15' E 131°52'0 0.0
2018-Jan-05 03:55N 33°15' E 131°52'0 0.0
2018-Jan-05 03:25N 33°15' E 131°52'0 0.0
2018-Jan-05 02:55N 33°15' E 131°52'0 0.0
2018-Jan-05 02:28N 33°15' E 131°52'0 0.0
2018-Jan-05 01:58N 33°15' E 131°52'0 0.0
2018-Jan-05 01:25N 33°15' E 131°52'0 0.0
2018-Jan-05 00:58N 33°15' E 131°52'0 0.0
2018-Jan-05 00:22N 33°15' E 131°52'0 0.0
2018-Jan-04 23:55N 33°15' E 131°52'0 0.0
2018-Jan-04 23:25N 33°15' E 131°52'0 0.0
2018-Jan-04 22:49N 33°15' E 131°52'0 0.0
2018-Jan-04 22:25N 33°15' E 131°52'0 0.0
2018-Jan-04 21:58N 33°15' E 131°52'0 0.0
2018-Jan-04 21:28N 33°15' E 131°52'0 0.0
2018-Jan-04 20:58N 33°15' E 131°52'0 0.0
2018-Jan-04 20:22N 33°15' E 131°52'0 0.0
2018-Jan-04 19:37N 33°15' E 131°52'0 0.0
2018-Jan-04 19:25N 33°15' E 131°52'0 0.0
2018-Jan-04 18:55N 33°15' E 131°52'0 0.0
2018-Jan-04 18:25N 33°15' E 131°52'0 0.0
2018-Jan-04 17:55N 33°15' E 131°52'0 0.0
2018-Jan-04 17:25N 33°15' E 131°52'0 0.0
2018-Jan-04 16:55N 33°15' E 131°52'0 0.0
2018-Jan-04 16:25N 33°15' E 131°52'0 0.0
2018-Jan-04 15:55N 33°15' E 131°52'0 0.0
2018-Jan-04 15:25N 33°15' E 131°52'0 0.0
2018-Jan-04 14:55N 33°15' E 131°52'0 0.0
2018-Jan-04 14:25N 33°15' E 131°52'0 0.0
2018-Jan-04 13:55N 33°15' E 131°52'0 0.0
2018-Jan-04 13:28N 33°15' E 131°52'0 0.0
2018-Jan-04 12:58N 33°15' E 131°52'0 0.0
2018-Jan-04 12:25N 33°15' E 131°52'0 0.0
2018-Jan-04 11:58N 33°15' E 131°52'0 0.0
2018-Jan-04 11:28N 33°15' E 131°52'0 0.0
2018-Jan-04 10:49N 33°15' E 131°52'0 0.0
2018-Jan-04 10:28N 33°15' E 131°52'0 0.0
2018-Jan-04 09:55N 33°15' E 131°52'0 0.0
2018-Jan-04 09:22N 33°15' E 131°52'0 0.0
2018-Jan-04 08:58N 33°15' E 131°52'0 0.0
2018-Jan-04 08:25N 33°15' E 131°52'0 0.0
2018-Jan-04 07:55N 33°15' E 131°52'0 0.0
2018-Jan-04 07:28N 33°15' E 131°52'0 0.0
2018-Jan-04 06:58N 33°15' E 131°52'0 0.0
2018-Jan-04 06:25N 33°15' E 131°52'0 0.0
2018-Jan-04 05:58N 33°15' E 131°52'0 0.0
2018-Jan-04 05:25N 33°15' E 131°52'0 0.0
2018-Jan-04 04:55N 33°15' E 131°52'0 0.0
2018-Jan-04 04:28N 33°15' E 131°52'0 0.0
2018-Jan-04 03:58N 33°15' E 131°52'0 0.0
2018-Jan-04 03:25N 33°15' E 131°52'0 0.0
2018-Jan-04 02:55N 33°15' E 131°52'0 0.0
2018-Jan-04 02:22N 33°15' E 131°52'0 0.0
2018-Jan-04 01:55N 33°15' E 131°52'0 0.0
2018-Jan-04 01:28N 33°15' E 131°52'0 0.0
2018-Jan-04 00:55N 33°15' E 131°52'0 0.0
2018-Jan-04 00:25N 33°15' E 131°52'0 0.0
2018-Jan-04 00:00N 33°15' E 131°52'1 1.5
2018-Jan-03 23:26N 33°16' E 131°51'0 0.1
2018-Jan-03 22:56N 33°16' E 131°51'0 0.3
2018-Jan-03 22:20N 33°16' E 131°51'0 0.1
2018-Jan-03 21:56N 33°16' E 131°51'0 0.0
2018-Jan-03 21:29N 33°16' E 131°51'0 0.1
2018-Jan-03 20:59N 33°16' E 131°51'0 0.2
2018-Jan-03 20:29N 33°16' E 131°51'0 0.1
2018-Jan-03 19:56N 33°16' E 131°51'0 0.1
2018-Jan-03 19:26N 33°16' E 131°51'0 0.0
2018-Jan-03 18:56N 33°16' E 131°51'0 0.0
2018-Jan-03 18:26N 33°16' E 131°51'0 0.0
2018-Jan-03 17:59N 33°16' E 131°51'0 0.0
2018-Jan-03 17:26N 33°16' E 131°51'0 0.0
2018-Jan-03 16:59N 33°16' E 131°51'0 0.0
2018-Jan-03 16:26N 33°16' E 131°51'0 0.0
2018-Jan-03 15:59N 33°16' E 131°51'0 0.0
2018-Jan-03 15:29N 33°16' E 131°51'0 0.0
2018-Jan-03 14:56N 33°16' E 131°51'0 0.1
2018-Jan-03 14:29N 33°16' E 131°51'0 0.1
2018-Jan-03 13:56N 33°16' E 131°51'0 0.1
2018-Jan-03 13:26N 33°16' E 131°51'0 0.0
2018-Jan-03 12:56N 33°16' E 131°51'0 0.0
2018-Jan-03 12:26N 33°16' E 131°51'0 0.1
2018-Jan-03 11:53N 33°16' E 131°51'0 0.0
2018-Jan-03 11:29N 33°16' E 131°51'0 0.0
2018-Jan-03 10:56N 33°16' E 131°51'0 0.0
2018-Jan-03 10:20N 33°16' E 131°51'0 0.0
2018-Jan-03 09:50N 33°16' E 131°51'0 0.0
2018-Jan-03 09:29N 33°16' E 131°51'0 0.0
2018-Jan-03 08:56N 33°16' E 131°51'0 0.1
2018-Jan-03 08:26N 33°16' E 131°51'0 0.1
2018-Jan-03 07:56N 33°16' E 131°51'0 0.1
2018-Jan-03 07:20N 33°16' E 131°51'0 0.0
2018-Jan-03 06:56N 33°16' E 131°51'0 0.1
2018-Jan-03 06:20N 33°16' E 131°51'0 0.1
2018-Jan-03 05:56N 33°16' E 131°51'0 0.1
2018-Jan-03 05:29N 33°16' E 131°51'0 0.0
2018-Jan-03 04:56N 33°16' E 131°51'0 0.0
2018-Jan-03 04:26N 33°16' E 131°51'0 0.0
2018-Jan-03 03:59N 33°16' E 131°51'0 0.0
2018-Jan-03 03:29N 33°16' E 131°51'0 0.0
2018-Jan-03 02:56N 33°16' E 131°51'0 0.0
2018-Jan-03 02:26N 33°16' E 131°51'0 0.0
2018-Jan-03 01:59N 33°16' E 131°51'0 0.0
2018-Jan-03 01:26N 33°16' E 131°51'0 0.0
2018-Jan-03 00:56N 33°16' E 131°51'0 0.0
2018-Jan-03 00:26N 33°16' E 131°51'0 0.1
2018-Jan-02 23:38N 33°16' E 131°51'0 0.1
2018-Jan-02 23:08N 33°16' E 131°51'0 0.0
2018-Jan-02 22:50N 33°16' E 131°51'0 0.1
2018-Jan-02 22:20N 33°16' E 131°51'0 0.1
2018-Jan-02 21:56N 33°16' E 131°51'0 0.0
2018-Jan-02 21:26N 33°16' E 131°51'0 0.0
2018-Jan-02 20:56N 33°16' E 131°51'0 0.0
2018-Jan-02 20:26N 33°16' E 131°51'0 0.1
2018-Jan-02 19:56N 33°16' E 131°51'0 0.0
2018-Jan-02 19:26N 33°16' E 131°51'0 0.0
2018-Jan-02 18:53N 33°16' E 131°51'0 0.0
2018-Jan-02 18:26N 33°16' E 131°51'0 0.0
2018-Jan-02 17:59N 33°16' E 131°51'0 0.0
2018-Jan-02 17:29N 33°16' E 131°51'0 0.1
2018-Jan-02 16:59N 33°16' E 131°51'0 0.0
2018-Jan-02 16:29N 33°16' E 131°51'0 0.0
2018-Jan-02 15:56N 33°16' E 131°51'0 0.0
2018-Jan-02 15:23N 33°16' E 131°51'0 0.0
2018-Jan-02 14:59N 33°16' E 131°51'0 0.0
2018-Jan-02 14:29N 33°16' E 131°51'0 0.0
2018-Jan-02 13:59N 33°16' E 131°51'0 0.0
2018-Jan-02 13:29N 33°16' E 131°51'0 0.0
2018-Jan-02 12:56N 33°16' E 131°51'0 0.0
2018-Jan-02 12:26N 33°16' E 131°51'0 0.1
2018-Jan-02 11:59N 33°16' E 131°51'0 0.1
2018-Jan-02 11:26N 33°16' E 131°51'0 0.1
2018-Jan-02 10:56N 33°16' E 131°51'0 0.0
2018-Jan-02 10:26N 33°16' E 131°51'0 0.0
2018-Jan-02 09:56N 33°16' E 131°51'0 0.1
2018-Jan-02 09:26N 33°16' E 131°51'0 0.0
2018-Jan-02 08:26N 33°16' E 131°51'0 0.1
2018-Jan-02 07:59N 33°16' E 131°51'0 0.0
2018-Jan-02 07:20N 33°16' E 131°51'0 0.0
2018-Jan-02 06:50N 33°16' E 131°51'0 0.0
2018-Jan-02 06:26N 33°16' E 131°51'0 0.1
2018-Jan-02 05:56N 33°16' E 131°51'0 0.1
2018-Jan-02 05:26N 33°16' E 131°51'0 0.0
2018-Jan-02 04:26N 33°16' E 131°51'0 0.0
2018-Jan-02 03:56N 33°16' E 131°51'0 0.0
2018-Jan-02 03:26N 33°16' E 131°51'0 0.0
2018-Jan-02 03:00N 33°16' E 131°51'0 0.9
2018-Jan-02 02:28N 33°16' E 131°52'3 3.6
2018-Jan-02 01:44N 33°18' E 131°55'1 5.5
2018-Jan-02 01:30N 33°18' E 131°56'4 8.0
2018-Jan-02 00:59N 33°17' E 132°01'4 8.2
2018-Jan-02 00:28N 33°14' E 132°04'3 0.1
2017-Dec-31 10:44N 33°14' E 132°00'3 7.9
2017-Dec-31 10:22N 33°16' E 131°59'3 9.1
2017-Dec-31 09:59N 33°20' E 131°59'4 7.9
2017-Dec-31 09:30N 33°23' E 131°59'3711.8
2017-Dec-31 06:21N 33°49' E 132°31'412.4
2017-Dec-31 06:00N 33°52' E 132°35'612.7
2017-Dec-31 05:30N 33°57' E 132°41'713.2
2017-Dec-31 05:00N 34°01' E 132°46'6211.4
2017-Dec-30 23:36N 34°25' E 133°54'  
2017-Dec-27 05:41N 34°26' E 134°09'511.4
2017-Dec-27 05:16N 34°24' E 134°14'311.6
2017-Dec-27 04:59N 34°24' E 134°18'511.2
2017-Dec-27 04:30N 34°26' E 134°24'611.7
2017-Dec-27 04:00N 34°28' E 134°31'611.4
2017-Dec-27 03:31N 34°30' E 134°37'611.0
2017-Dec-27 03:00N 34°32' E 134°43'510.9
2017-Dec-27 02:30N 34°34' E 134°50'510.8
2017-Dec-27 02:00N 34°36' E 134°56'5 9.3
2017-Dec-27 01:30N 34°37' E 135°01'4 8.5
2017-Dec-27 01:00N 34°35' E 135°06'3 5.4
2017-Dec-27 00:31N 34°33' E 135°08'5 9.9
2017-Dec-27 00:01N 34°29' E 135°05'510.6
2017-Dec-26 23:31N 34°24' E 135°03'510.4
2017-Dec-26 23:00N 34°19' E 135°00'5 9.1
2017-Dec-26 22:30N 34°15' E 134°59'4 8.8
2017-Dec-26 22:00N 34°11' E 134°60'  
Track history (hours):
 
Tides and Currents Weather Stations Pressure Air Temp Water Temp Dewpoint Dewpoint Depression Visibility Wind Speed Wind Dir Waves Ship Positions

Tasman Castle

Last reported at 2018-Jan-05 21:42 UTC. Time now 2018-Jun-24 20:42 UTC.
Position N 34°37' E 130°13'.
Warning: this ship's position is months out of date.

Length 190 m; draft 9.3 m.

Type: Cargo ship. MMSI: 229237000.

Date/timePositionNaut miles runAvg speedWind from/ knotsBaromVisibWave heightAir tempDewpointWater temp
2018-Jan-05 21:42N 34°37' E 130°13'310.4
2018-Jan-05 21:24N 34°35' E 130°16'410.2
2018-Jan-05 21:01N 34°33' E 130°20'510.0
2018-Jan-05 20:30N 34°28' E 130°22'510.4
2018-Jan-05 20:01N 34°24' E 130°26'510.6
2018-Jan-05 19:31N 34°20' E 130°31'510.4
2018-Jan-05 19:00N 34°16' E 130°34'510.6
2018-Jan-05 18:30N 34°11' E 130°37'510.6
2018-Jan-05 18:00N 34°07' E 130°41'510.5
2018-Jan-05 17:30N 34°04' E 130°46'510.2
2018-Jan-05 17:00N 34°01' E 130°51'4 7.7
2018-Jan-05 16:30N 33°58' E 130°52'4 7.5
2018-Jan-05 16:00N 33°55' E 130°56'510.6
2018-Jan-05 15:30N 33°59' E 131°01'4 8.5
2018-Jan-05 15:00N 33°56' E 131°05'4 8.4
2018-Jan-05 14:30N 33°54' E 131°09'5 9.1
2018-Jan-05 14:00N 33°52' E 131°14'5 9.4
2018-Jan-05 13:30N 33°51' E 131°19'5 9.6
2018-Jan-05 13:00N 33°50' E 131°25'5 9.4
2018-Jan-05 12:30N 33°48' E 131°30'4 8.8
2018-Jan-05 12:00N 33°48' E 131°36'3 5.8
2018-Jan-05 11:30N 33°47' E 131°39'4 8.5
2018-Jan-05 11:00N 33°45' E 131°43'5 9.7
2018-Jan-05 10:30N 33°41' E 131°47'5 9.7
2018-Jan-05 10:00N 33°36' E 131°49'510.3
2018-Jan-05 09:30N 33°31' E 131°49'5 9.9
2018-Jan-05 09:00N 33°26' E 131°50'5 9.7
2018-Jan-05 08:30N 33°22' E 131°51'5 9.8
2018-Jan-05 08:00N 33°17' E 131°51'2 2.7
2018-Jan-05 07:27N 33°15' E 131°52'0 0.0
2018-Jan-05 06:57N 33°15' E 131°52'0 0.0
2018-Jan-05 06:27N 33°15' E 131°52'0 0.0
2018-Jan-05 05:57N 33°15' E 131°52'0 0.0
2018-Jan-05 05:13N 33°15' E 131°52'0 0.0
2018-Jan-05 04:55N 33°15' E 131°52'0 0.0
2018-Jan-05 04:25N 33°15' E 131°52'0 0.0
2018-Jan-05 03:55N 33°15' E 131°52'0 0.0
2018-Jan-05 03:25N 33°15' E 131°52'0 0.0
2018-Jan-05 02:55N 33°15' E 131°52'0 0.0
2018-Jan-05 02:28N 33°15' E 131°52'0 0.0
2018-Jan-05 01:58N 33°15' E 131°52'0 0.0
2018-Jan-05 01:25N 33°15' E 131°52'0 0.0
2018-Jan-05 00:58N 33°15' E 131°52'0 0.0
2018-Jan-05 00:22N 33°15' E 131°52'0 0.0
2018-Jan-04 23:55N 33°15' E 131°52'0 0.0
2018-Jan-04 23:25N 33°15' E 131°52'0 0.0
2018-Jan-04 22:49N 33°15' E 131°52'0 0.0
2018-Jan-04 22:25N 33°15' E 131°52'0 0.0
2018-Jan-04 21:58N 33°15' E 131°52'0 0.0
2018-Jan-04 21:28N 33°15' E 131°52'0 0.0
2018-Jan-04 20:58N 33°15' E 131°52'0 0.0
2018-Jan-04 20:22N 33°15' E 131°52'0 0.0
2018-Jan-04 19:37N 33°15' E 131°52'0 0.0
2018-Jan-04 19:25N 33°15' E 131°52'0 0.0
2018-Jan-04 18:55N 33°15' E 131°52'0 0.0
2018-Jan-04 18:25N 33°15' E 131°52'0 0.0
2018-Jan-04 17:55N 33°15' E 131°52'0 0.0
2018-Jan-04 17:25N 33°15' E 131°52'0 0.0
2018-Jan-04 16:55N 33°15' E 131°52'0 0.0
2018-Jan-04 16:25N 33°15' E 131°52'0 0.0
2018-Jan-04 15:55N 33°15' E 131°52'0 0.0
2018-Jan-04 15:25N 33°15' E 131°52'0 0.0
2018-Jan-04 14:55N 33°15' E 131°52'0 0.0
2018-Jan-04 14:25N 33°15' E 131°52'0 0.0
2018-Jan-04 13:55N 33°15' E 131°52'0 0.0
2018-Jan-04 13:28N 33°15' E 131°52'0 0.0
2018-Jan-04 12:58N 33°15' E 131°52'0 0.0
2018-Jan-04 12:25N 33°15' E 131°52'0 0.0
2018-Jan-04 11:58N 33°15' E 131°52'0 0.0
2018-Jan-04 11:28N 33°15' E 131°52'0 0.0
2018-Jan-04 10:49N 33°15' E 131°52'0 0.0
2018-Jan-04 10:28N 33°15' E 131°52'0 0.0
2018-Jan-04 09:55N 33°15' E 131°52'0 0.0
2018-Jan-04 09:22N 33°15' E 131°52'0 0.0
2018-Jan-04 08:58N 33°15' E 131°52'0 0.0
2018-Jan-04 08:25N 33°15' E 131°52'0 0.0
2018-Jan-04 07:55N 33°15' E 131°52'0 0.0
2018-Jan-04 07:28N 33°15' E 131°52'0 0.0
2018-Jan-04 06:58N 33°15' E 131°52'0 0.0
2018-Jan-04 06:25N 33°15' E 131°52'0 0.0
2018-Jan-04 05:58N 33°15' E 131°52'0 0.0
2018-Jan-04 05:25N 33°15' E 131°52'0 0.0
2018-Jan-04 04:55N 33°15' E 131°52'0 0.0
2018-Jan-04 04:28N 33°15' E 131°52'0 0.0
2018-Jan-04 03:58N 33°15' E 131°52'0 0.0
2018-Jan-04 03:25N 33°15' E 131°52'0 0.0
2018-Jan-04 02:55N 33°15' E 131°52'0 0.0
2018-Jan-04 02:22N 33°15' E 131°52'0 0.0
2018-Jan-04 01:55N 33°15' E 131°52'0 0.0
2018-Jan-04 01:28N 33°15' E 131°52'0 0.0
2018-Jan-04 00:55N 33°15' E 131°52'0 0.0
2018-Jan-04 00:25N 33°15' E 131°52'0 0.0
2018-Jan-04 00:00N 33°15' E 131°52'1 1.5
2018-Jan-03 23:26N 33°16' E 131°51'0 0.1
2018-Jan-03 22:56N 33°16' E 131°51'0 0.3
2018-Jan-03 22:20N 33°16' E 131°51'0 0.1
2018-Jan-03 21:56N 33°16' E 131°51'0 0.0
2018-Jan-03 21:29N 33°16' E 131°51'0 0.1
2018-Jan-03 20:59N 33°16' E 131°51'0 0.2
2018-Jan-03 20:29N 33°16' E 131°51'0 0.1
2018-Jan-03 19:56N 33°16' E 131°51'0 0.1
2018-Jan-03 19:26N 33°16' E 131°51'0 0.0
2018-Jan-03 18:56N 33°16' E 131°51'0 0.0
2018-Jan-03 18:26N 33°16' E 131°51'0 0.0
2018-Jan-03 17:59N 33°16' E 131°51'0 0.0
2018-Jan-03 17:26N 33°16' E 131°51'0 0.0
2018-Jan-03 16:59N 33°16' E 131°51'0 0.0
2018-Jan-03 16:26N 33°16' E 131°51'0 0.0
2018-Jan-03 15:59N 33°16' E 131°51'0 0.0
2018-Jan-03 15:29N 33°16' E 131°51'0 0.0
2018-Jan-03 14:56N 33°16' E 131°51'0 0.1
2018-Jan-03 14:29N 33°16' E 131°51'0 0.1
2018-Jan-03 13:56N 33°16' E 131°51'0 0.1
2018-Jan-03 13:26N 33°16' E 131°51'0 0.0
2018-Jan-03 12:56N 33°16' E 131°51'0 0.0
2018-Jan-03 12:26N 33°16' E 131°51'0 0.1
2018-Jan-03 11:53N 33°16' E 131°51'0 0.0
2018-Jan-03 11:29N 33°16' E 131°51'0 0.0
2018-Jan-03 10:56N 33°16' E 131°51'0 0.0
2018-Jan-03 10:20N 33°16' E 131°51'0 0.0
2018-Jan-03 09:50N 33°16' E 131°51'0 0.0
2018-Jan-03 09:29N 33°16' E 131°51'0 0.0
2018-Jan-03 08:56N 33°16' E 131°51'0 0.1
2018-Jan-03 08:26N 33°16' E 131°51'0 0.1
2018-Jan-03 07:56N 33°16' E 131°51'0 0.1
2018-Jan-03 07:20N 33°16' E 131°51'0 0.0
2018-Jan-03 06:56N 33°16' E 131°51'0 0.1
2018-Jan-03 06:20N 33°16' E 131°51'0 0.1
2018-Jan-03 05:56N 33°16' E 131°51'0 0.1
2018-Jan-03 05:29N 33°16' E 131°51'0 0.0
2018-Jan-03 04:56N 33°16' E 131°51'0 0.0
2018-Jan-03 04:26N 33°16' E 131°51'0 0.0
2018-Jan-03 03:59N 33°16' E 131°51'0 0.0
2018-Jan-03 03:29N 33°16' E 131°51'0 0.0
2018-Jan-03 02:56N 33°16' E 131°51'0 0.0
2018-Jan-03 02:26N 33°16' E 131°51'0 0.0
2018-Jan-03 01:59N 33°16' E 131°51'0 0.0
2018-Jan-03 01:26N 33°16' E 131°51'0 0.0
2018-Jan-03 00:56N 33°16' E 131°51'0 0.0
2018-Jan-03 00:26N 33°16' E 131°51'0 0.1
2018-Jan-02 23:38N 33°16' E 131°51'0 0.1
2018-Jan-02 23:08N 33°16' E 131°51'0 0.0
2018-Jan-02 22:50N 33°16' E 131°51'0 0.1
2018-Jan-02 22:20N 33°16' E 131°51'0 0.1
2018-Jan-02 21:56N 33°16' E 131°51'0 0.0
2018-Jan-02 21:26N 33°16' E 131°51'0 0.0
2018-Jan-02 20:56N 33°16' E 131°51'0 0.0
2018-Jan-02 20:26N 33°16' E 131°51'0 0.1
2018-Jan-02 19:56N 33°16' E 131°51'0 0.0
2018-Jan-02 19:26N 33°16' E 131°51'0 0.0
2018-Jan-02 18:53N 33°16' E 131°51'0 0.0
2018-Jan-02 18:26N 33°16' E 131°51'0 0.0
2018-Jan-02 17:59N 33°16' E 131°51'0 0.0
2018-Jan-02 17:29N 33°16' E 131°51'0 0.1
2018-Jan-02 16:59N 33°16' E 131°51'0 0.0
2018-Jan-02 16:29N 33°16' E 131°51'0 0.0
2018-Jan-02 15:56N 33°16' E 131°51'0 0.0
2018-Jan-02 15:23N 33°16' E 131°51'0 0.0
2018-Jan-02 14:59N 33°16' E 131°51'0 0.0
2018-Jan-02 14:29N 33°16' E 131°51'0 0.0
2018-Jan-02 13:59N 33°16' E 131°51'0 0.0
2018-Jan-02 13:29N 33°16' E 131°51'0 0.0
2018-Jan-02 12:56N 33°16' E 131°51'0 0.0
2018-Jan-02 12:26N 33°16' E 131°51'0 0.1
2018-Jan-02 11:59N 33°16' E 131°51'0 0.1
2018-Jan-02 11:26N 33°16' E 131°51'0 0.1
2018-Jan-02 10:56N 33°16' E 131°51'0 0.0
2018-Jan-02 10:26N 33°16' E 131°51'0 0.0
2018-Jan-02 09:56N 33°16' E 131°51'0 0.1
2018-Jan-02 09:26N 33°16' E 131°51'0 0.0
2018-Jan-02 08:26N 33°16' E 131°51'0 0.1
2018-Jan-02 07:59N 33°16' E 131°51'0 0.0
2018-Jan-02 07:20N 33°16' E 131°51'0 0.0
2018-Jan-02 06:50N 33°16' E 131°51'0 0.0
2018-Jan-02 06:26N 33°16' E 131°51'0 0.1
2018-Jan-02 05:56N 33°16' E 131°51'0 0.1
2018-Jan-02 05:26N 33°16' E 131°51'0 0.0
2018-Jan-02 04:26N 33°16' E 131°51'0 0.0
2018-Jan-02 03:56N 33°16' E 131°51'0 0.0
2018-Jan-02 03:26N 33°16' E 131°51'0 0.0
2018-Jan-02 03:00N 33°16' E 131°51'0 0.9
2018-Jan-02 02:28N 33°16' E 131°52'3 3.6
2018-Jan-02 01:44N 33°18' E 131°55'1 5.5
2018-Jan-02 01:30N 33°18' E 131°56'4 8.0
2018-Jan-02 00:59N 33°17' E 132°01'4 8.2
2018-Jan-02 00:28N 33°14' E 132°04'3 0.1
2017-Dec-31 10:44N 33°14' E 132°00'3 7.9
2017-Dec-31 10:22N 33°16' E 131°59'3 9.1
2017-Dec-31 09:59N 33°20' E 131°59'4 7.9
2017-Dec-31 09:30N 33°23' E 131°59'3711.8
2017-Dec-31 06:21N 33°49' E 132°31'412.4
2017-Dec-31 06:00N 33°52' E 132°35'612.7
2017-Dec-31 05:30N 33°57' E 132°41'713.2
2017-Dec-31 05:00N 34°01' E 132°46'6211.4
2017-Dec-30 23:36N 34°25' E 133°54'  
2017-Dec-27 05:41N 34°26' E 134°09'511.4
2017-Dec-27 05:16N 34°24' E 134°14'311.6
2017-Dec-27 04:59N 34°24' E 134°18'511.2
2017-Dec-27 04:30N 34°26' E 134°24'611.7
2017-Dec-27 04:00N 34°28' E 134°31'611.4
2017-Dec-27 03:31N 34°30' E 134°37'611.0
2017-Dec-27 03:00N 34°32' E 134°43'510.9
2017-Dec-27 02:30N 34°34' E 134°50'510.8
2017-Dec-27 02:00N 34°36' E 134°56'5 9.3
2017-Dec-27 01:30N 34°37' E 135°01'4 8.5
2017-Dec-27 01:00N 34°35' E 135°06'3 5.4
2017-Dec-27 00:31N 34°33' E 135°08'5 9.9
2017-Dec-27 00:01N 34°29' E 135°05'510.6
2017-Dec-26 23:31N 34°24' E 135°03'510.4
2017-Dec-26 23:00N 34°19' E 135°00'5 9.1
2017-Dec-26 22:30N 34°15' E 134°59'4 8.8
2017-Dec-26 22:00N 34°11' E 134°60'  

Dump ship's entire track history